createdAt,value
2024-01-26T00:01:28.404Z,101663.84
2024-01-26T00:04:13.899Z,101663.91
2024-01-26T00:06:59.376Z,101671.84
2024-01-26T00:09:44.655Z,101661.41
2024-01-26T00:12:29.697Z,101654.94
2024-01-26T00:15:15.711Z,101647.00
2024-01-26T00:18:00.972Z,101651.47
2024-01-26T00:20:45.866Z,101646.69
2024-01-26T00:23:31.593Z,101646.16
2024-01-26T00:26:16.835Z,101651.22
2024-01-26T00:29:01.804Z,101647.91
2024-01-26T00:31:46.732Z,101643.88
2024-01-26T00:34:31.505Z,101640.97
2024-01-26T00:37:16.943Z,101641.84
2024-01-26T00:40:02.235Z,101636.78
2024-01-26T00:42:47.443Z,101631.06
2024-01-26T00:45:32.353Z,101630.94
2024-01-26T00:48:17.404Z,101634.81
2024-01-26T00:51:02.345Z,101631.28
2024-01-26T00:53:47.308Z,101623.66
2024-01-26T00:56:32.684Z,101627.88
2024-01-26T00:59:18.181Z,101620.47
2024-01-26T01:02:03.775Z,101623.03
2024-01-26T01:04:48.832Z,101628.19
2024-01-26T01:07:34.037Z,101619.63
2024-01-26T01:10:19.242Z,101621.59
2024-01-26T01:13:04.793Z,101619.03
2024-01-26T01:15:49.940Z,101616.72
2024-01-26T01:18:35.036Z,101622.06
2024-01-26T01:21:20.308Z,101619.53
2024-01-26T01:24:05.546Z,101617.03
2024-01-26T01:26:50.594Z,101606.16
2024-01-26T01:29:35.445Z,101608.00
2024-01-26T01:32:20.287Z,101619.19
2024-01-26T01:35:05.483Z,101612.53
2024-01-26T01:37:50.595Z,101607.25
2024-01-26T01:40:35.416Z,101605.38
2024-01-26T01:43:20.436Z,101604.88
2024-01-26T01:46:05.386Z,101599.59
2024-01-26T01:48:51.564Z,101596.56
2024-01-26T01:51:38.598Z,101588.81
2024-01-26T01:54:24.706Z,101597.44
2024-01-26T01:57:13.786Z,101592.44
2024-01-26T01:59:59.162Z,101592.44
2024-01-26T02:02:45.773Z,101593.19
2024-01-26T02:05:31.048Z,101603.63
2024-01-26T02:08:16.474Z,101598.53
2024-01-26T02:11:01.493Z,101603.94
2024-01-26T02:13:46.399Z,101603.13
2024-01-26T02:16:31.230Z,101597.84
2024-01-26T02:19:16.640Z,101587.84
2024-01-26T02:22:01.688Z,101584.38
2024-01-26T02:24:46.621Z,101586.03
2024-01-26T02:27:31.915Z,101578.47
2024-01-26T02:30:16.966Z,101581.00
2024-01-26T02:33:01.883Z,101579.22
2024-01-26T02:35:47.078Z,101577.81
2024-01-26T02:38:32.038Z,101589.09
2024-01-26T02:41:16.876Z,101587.41
2024-01-26T02:44:02.121Z,101590.81
2024-01-26T02:46:47.283Z,101580.38
2024-01-26T02:49:33.599Z,101578.22
2024-01-26T02:52:18.709Z,101578.09
2024-01-26T02:55:03.722Z,101579.75
2024-01-26T02:57:49.072Z,101566.91
2024-01-26T03:00:33.969Z,101567.78
2024-01-26T03:03:18.964Z,101561.00
2024-01-26T03:06:04.606Z,101564.41
2024-01-26T03:08:49.670Z,101558.41
2024-01-26T03:11:42.843Z,101561.25
2024-01-26T03:14:27.864Z,101556.09
2024-01-26T03:17:13.176Z,101560.38
2024-01-26T03:19:58.061Z,101558.75
2024-01-26T03:22:42.865Z,101550.19
2024-01-26T03:25:27.736Z,101544.28
2024-01-26T03:28:12.668Z,101535.59
2024-01-26T03:30:57.534Z,101535.91
2024-01-26T03:33:43.770Z,101536.63
2024-01-26T03:36:28.877Z,101540.41
2024-01-26T03:39:13.882Z,101542.13
2024-01-26T03:41:59.284Z,101538.72
2024-01-26T03:44:44.652Z,101529.97
2024-01-26T03:47:30.044Z,101512.03
2024-01-26T03:50:15.045Z,101524.91
2024-01-26T03:52:59.995Z,101516.50
2024-01-26T03:55:45.317Z,101511.16
2024-01-26T03:58:30.220Z,101512.38
2024-01-26T04:01:15.096Z,101501.84
2024-01-26T04:03:59.949Z,101507.75
2024-01-26T04:06:44.827Z,101516.50
2024-01-26T04:09:29.836Z,101508.13
2024-01-26T04:12:14.940Z,101512.63
2024-01-26T04:15:00.208Z,101520.25
2024-01-26T04:17:45.323Z,101512.56
2024-01-26T04:20:30.641Z,101511.63
2024-01-26T04:23:16.332Z,101509.63
2024-01-26T04:26:01.687Z,101506.97
2024-01-26T04:28:46.682Z,101495.03
2024-01-26T04:31:31.685Z,101489.09
2024-01-26T04:34:16.712Z,101483.97
2024-01-26T04:37:01.872Z,101474.56
2024-01-26T04:39:46.724Z,101472.75
2024-01-26T04:42:31.731Z,101468.75
2024-01-26T04:45:16.692Z,101459.28
2024-01-26T04:48:02.027Z,101448.09
2024-01-26T04:50:46.855Z,101444.00
2024-01-26T04:53:31.800Z,101444.88
2024-01-26T04:56:16.617Z,101439.56
2024-01-26T04:59:01.527Z,101425.84
2024-01-26T05:01:46.463Z,101423.38
2024-01-26T05:04:31.345Z,101431.94
2024-01-26T05:07:16.136Z,101433.69
2024-01-26T05:10:01.612Z,101434.84
2024-01-26T05:12:46.856Z,101437.25
2024-01-26T05:15:31.919Z,101433.97
2024-01-26T05:18:17.089Z,101427.97
2024-01-26T05:21:02.420Z,101406.38
2024-01-26T05:23:47.262Z,101413.31
2024-01-26T05:26:32.272Z,101397.75
2024-01-26T05:29:17.180Z,101380.75
2024-01-26T05:32:02.005Z,101370.41
2024-01-26T05:34:47.108Z,101372.88
2024-01-26T05:37:32.400Z,101372.13
2024-01-26T05:40:17.517Z,101373.84
2024-01-26T05:43:02.345Z,101372.16
2024-01-26T05:45:47.235Z,101355.78
2024-01-26T05:48:32.212Z,101358.53
2024-01-26T05:51:17.588Z,101359.50
2024-01-26T05:54:02.630Z,101362.88
2024-01-26T05:56:47.585Z,101356.81
2024-01-26T05:59:32.496Z,101352.63
2024-01-26T06:02:17.327Z,101345.06
2024-01-26T06:05:02.192Z,101344.13
2024-01-26T06:07:46.978Z,101341.78
2024-01-26T06:10:31.877Z,101341.00
2024-01-26T06:13:16.724Z,101329.69
2024-01-26T06:16:01.635Z,101330.59
2024-01-26T06:18:46.559Z,101324.06
2024-01-26T06:21:32.016Z,101314.72
2024-01-26T06:24:17.438Z,101306.09
2024-01-26T06:27:02.787Z,101296.09
2024-01-26T06:29:47.675Z,101302.03
2024-01-26T06:32:33.028Z,101283.28
2024-01-26T06:35:18.720Z,101273.72
2024-01-26T06:38:04.084Z,101255.53
2024-01-26T06:40:49.246Z,101231.50
2024-01-26T06:43:34.707Z,101230.66
2024-01-26T06:46:22.711Z,101227.38
2024-01-26T06:49:07.838Z,101210.41
2024-01-26T06:51:53.280Z,101201.84
2024-01-26T06:54:38.515Z,101196.63
2024-01-26T06:57:23.681Z,101189.72
2024-01-26T07:00:09.188Z,101168.19
2024-01-26T07:02:54.504Z,101161.25
2024-01-26T07:05:39.360Z,101169.00
2024-01-26T07:08:24.485Z,101173.44
2024-01-26T07:11:09.509Z,101178.91
2024-01-26T07:13:54.357Z,101167.81
2024-01-26T07:16:39.344Z,101148.88
2024-01-26T07:19:24.285Z,101153.16
2024-01-26T07:22:09.568Z,101142.13
2024-01-26T07:24:54.496Z,101131.91
2024-01-26T07:27:39.478Z,101134.59
2024-01-26T07:30:24.575Z,101136.22
2024-01-26T07:33:10.018Z,101108.59
2024-01-26T07:35:55.340Z,101100.19
2024-01-26T07:38:40.312Z,101116.63
2024-01-26T07:41:25.259Z,101096.03
2024-01-26T07:44:09.962Z,101089.91
2024-01-26T07:46:54.841Z,101086.34
2024-01-26T07:49:39.818Z,101079.56
2024-01-26T07:52:25.271Z,101074.28
2024-01-26T07:55:10.694Z,101069.97
2024-01-26T07:57:55.526Z,101058.16
2024-01-26T08:00:40.532Z,101048.34
2024-01-26T08:03:25.455Z,101062.91
2024-01-26T08:06:11.022Z,101056.81
2024-01-26T08:08:56.328Z,101061.00
2024-01-26T08:11:41.909Z,101062.72
2024-01-26T08:14:27.064Z,101066.88
2024-01-26T08:17:11.945Z,101069.53
2024-01-26T08:19:57.926Z,101064.31
2024-01-26T08:22:42.824Z,101070.53
2024-01-26T08:25:27.825Z,101068.75
2024-01-26T08:28:13.139Z,101068.75
2024-01-26T08:30:58.061Z,101061.63
2024-01-26T08:33:43.506Z,101073.75
2024-01-26T08:36:28.955Z,101075.44
2024-01-26T08:39:14.593Z,101072.03
2024-01-26T08:41:59.876Z,101063.34
2024-01-26T08:44:45.385Z,101071.91
2024-01-26T08:47:30.579Z,101071.81
2024-01-26T08:50:15.480Z,101070.03
2024-01-26T08:53:00.453Z,101074.09
2024-01-26T08:55:45.424Z,101077.53
2024-01-26T08:58:30.779Z,101086.25
2024-01-26T09:01:15.723Z,101089.69
2024-01-26T09:04:00.554Z,101090.59
2024-01-26T09:06:49.665Z,101085.38
2024-01-26T09:09:36.957Z,101071.69
2024-01-26T09:12:21.906Z,101091.47
2024-01-26T09:15:07.987Z,101101.09
2024-01-26T09:17:53.347Z,101100.25
2024-01-26T09:20:38.580Z,101091.03
2024-01-26T09:23:23.647Z,101090.06
2024-01-26T09:26:09.081Z,101089.34
2024-01-26T09:28:53.844Z,101068.88
2024-01-26T09:31:38.771Z,101091.47
2024-01-26T09:34:24.112Z,101091.44
2024-01-26T09:37:09.193Z,101119.81
2024-01-26T09:39:54.162Z,101105.19
2024-01-26T09:42:38.962Z,101110.31
2024-01-26T09:45:23.947Z,101120.56
2024-01-26T09:48:10.232Z,101115.53
2024-01-26T09:50:55.845Z,101121.53
2024-01-26T09:53:41.148Z,101144.88
2024-01-26T09:56:26.481Z,101118.13
2024-01-26T09:59:11.442Z,101126.69
2024-01-26T10:01:56.477Z,101118.16
2024-01-26T10:04:41.416Z,101131.84
2024-01-26T10:07:26.927Z,101118.19
2024-01-26T10:10:12.587Z,101118.38
2024-01-26T10:12:57.549Z,101115.84
2024-01-26T10:15:42.419Z,101107.41
2024-01-26T10:18:38.685Z,101116.13
2024-01-26T10:21:24.051Z,101101.41
2024-01-26T10:24:10.539Z,101098.88
2024-01-26T10:26:55.560Z,101091.06
2024-01-26T10:29:41.384Z,101080.88
2024-01-26T10:32:30.416Z,101093.66
2024-01-26T10:35:18.088Z,101072.34
2024-01-26T10:38:05.332Z,101069.97
2024-01-26T10:40:55.900Z,101070.84
2024-01-26T10:43:44.906Z,101063.38
2024-01-26T10:46:30.115Z,101050.38
2024-01-26T10:49:16.402Z,101059.88
2024-01-26T10:52:03.449Z,101044.34
2024-01-26T10:54:50.587Z,101052.00
2024-01-26T10:57:35.388Z,101050.31
2024-01-26T11:00:20.951Z,101051.19
2024-01-26T11:03:06.405Z,101045.22
2024-01-26T11:05:52.238Z,101059.94
2024-01-26T11:08:37.609Z,101040.91
2024-01-26T11:11:22.647Z,101052.97
2024-01-26T11:14:11.926Z,101049.59
2024-01-26T11:17:09.043Z,101052.31
2024-01-26T11:20:01.253Z,101074.84
2024-01-26T11:22:46.806Z,101044.78
2024-01-26T11:25:39.410Z,101050.84
2024-01-26T11:28:26.481Z,101057.84
2024-01-26T11:31:12.693Z,101039.81
2024-01-26T11:33:57.849Z,101050.09
2024-01-26T11:36:43.009Z,101113.00
2024-01-26T11:39:28.091Z,101109.28
2024-01-26T11:42:13.133Z,101095.09
2024-01-26T11:45:09.733Z,101093.81
2024-01-26T11:47:55.990Z,101090.84
2024-01-26T11:50:42.986Z,101089.88
2024-01-26T11:53:28.784Z,101087.84
2024-01-26T11:56:14.763Z,101074.69
2024-01-26T11:59:00.062Z,101078.06
2024-01-26T12:01:45.048Z,101055.69
2024-01-26T12:04:30.080Z,101069.78
2024-01-26T12:07:15.912Z,101066.16
2024-01-26T12:10:00.652Z,101084.84
2024-01-26T12:12:46.214Z,101061.16
2024-01-26T12:15:31.539Z,101064.66
2024-01-26T12:18:17.258Z,101066.44
2024-01-26T12:21:03.321Z,101050.50
2024-01-26T12:23:51.519Z,101059.84
2024-01-26T12:26:36.969Z,101076.28
2024-01-26T12:29:24.032Z,101070.81
2024-01-26T12:32:10.279Z,101077.56
2024-01-26T12:34:55.242Z,101102.13
2024-01-26T12:37:40.410Z,101095.91
2024-01-26T12:40:25.265Z,101070.19
2024-01-26T12:43:11.190Z,101046.28
2024-01-26T12:45:56.482Z,101035.31
2024-01-26T12:48:41.514Z,101026.72
2024-01-26T12:51:26.618Z,100993.84
2024-01-26T12:54:11.555Z,101014.47
2024-01-26T12:56:56.468Z,101011.81
2024-01-26T12:59:41.410Z,101030.31
2024-01-26T13:02:26.374Z,101060.75
2024-01-26T13:05:11.494Z,101034.72
2024-01-26T13:07:56.583Z,101016.53
2024-01-26T13:10:41.238Z,101017.09
2024-01-26T13:13:26.202Z,101032.28
2024-01-26T13:16:11.106Z,101042.47
2024-01-26T13:18:56.109Z,100995.81
2024-01-26T13:21:41.412Z,100924.34
2024-01-26T13:24:26.543Z,100899.84
2024-01-26T13:27:16.892Z,100897.88
2024-01-26T13:30:02.783Z,100924.72
2024-01-26T13:32:47.931Z,100928.78
2024-01-26T13:35:33.274Z,100964.28
2024-01-26T13:38:18.074Z,101004.34
2024-01-26T13:41:03.134Z,101029.81
2024-01-26T13:43:47.991Z,101068.50
2024-01-26T13:46:32.912Z,101127.19
2024-01-26T13:49:17.989Z,101154.94
2024-01-26T13:52:03.485Z,101173.19
2024-01-26T13:54:48.637Z,101158.84
2024-01-26T13:57:33.463Z,101188.06
2024-01-26T14:00:21.834Z,101191.50
2024-01-26T14:03:08.605Z,101162.56
2024-01-26T14:05:54.158Z,101165.00
2024-01-26T14:08:39.639Z,101170.41
2024-01-26T14:11:24.788Z,101183.66
2024-01-26T14:14:09.747Z,101214.56
2024-01-26T14:16:54.793Z,101256.75
2024-01-26T14:19:39.683Z,101310.72
2024-01-26T14:22:25.155Z,101345.28
2024-01-26T14:25:09.968Z,101354.72
2024-01-26T14:27:55.547Z,101355.59
2024-01-26T14:30:40.626Z,101379.56
2024-01-26T14:33:25.467Z,101350.13
2024-01-26T14:36:10.873Z,101378.28
2024-01-26T14:38:55.633Z,101378.28
2024-01-26T14:41:40.715Z,101382.88
2024-01-26T14:44:25.562Z,101371.09
2024-01-26T14:47:10.512Z,101377.50
2024-01-26T14:49:55.429Z,101359.69
2024-01-26T14:52:41.315Z,101363.31
2024-01-26T14:55:26.206Z,101374.81
2024-01-26T14:58:11.157Z,101382.53
2024-01-26T15:00:56.164Z,101401.34
2024-01-26T15:03:41.040Z,101418.97
2024-01-26T15:06:26.590Z,101453.25
2024-01-26T15:09:11.851Z,101441.13
2024-01-26T15:11:57.022Z,101450.03
2024-01-26T15:14:41.975Z,101478.81
2024-01-26T15:17:26.975Z,101486.69
2024-01-26T15:20:12.745Z,101507.00
2024-01-26T15:22:57.760Z,101534.13
2024-01-26T15:25:42.802Z,101562.16
2024-01-26T15:28:27.613Z,101591.84
2024-01-26T15:31:21.330Z,101613.34
2024-01-26T15:34:06.646Z,101642.09
2024-01-26T15:36:51.852Z,101672.81
2024-01-26T15:39:37.551Z,101674.63
2024-01-26T15:42:22.827Z,101674.34
2024-01-26T15:45:08.528Z,101670.63
2024-01-26T15:47:53.713Z,101686.16
2024-01-26T15:50:39.023Z,101688.78
2024-01-26T15:53:23.812Z,101690.47
2024-01-26T15:56:09.332Z,101690.47
2024-01-26T15:58:54.307Z,101679.63
2024-01-26T16:01:39.146Z,101692.78
2024-01-26T16:04:23.991Z,101697.91
2024-01-26T16:07:09.249Z,101692.13
2024-01-26T16:09:54.170Z,101729.16
2024-01-26T16:12:39.151Z,101739.53
2024-01-26T16:15:24.620Z,101773.16
2024-01-26T16:18:09.582Z,101770.06
2024-01-26T16:20:54.894Z,101794.63
2024-01-26T16:23:40.256Z,101806.94
2024-01-26T16:26:25.107Z,101827.38
2024-01-26T16:29:10.010Z,101839.16
2024-01-26T16:31:54.804Z,101842.44
2024-01-26T16:34:39.856Z,101848.56
2024-01-26T16:37:25.366Z,101854.00
2024-01-26T16:40:10.992Z,101846.88
2024-01-26T16:42:56.233Z,101849.38
2024-01-26T16:45:41.230Z,101854.91
2024-01-26T16:48:26.000Z,101853.84
2024-01-26T16:51:11.400Z,101858.28
2024-01-26T16:53:56.406Z,101864.81
2024-01-26T16:56:42.401Z,101865.31
2024-01-26T16:59:27.401Z,101880.69
2024-01-26T17:02:12.480Z,101900.75
2024-01-26T17:04:57.352Z,101913.09
2024-01-26T17:07:42.328Z,101929.94
2024-01-26T17:10:27.183Z,101952.28
2024-01-26T17:13:12.664Z,101974.16
2024-01-26T17:15:57.445Z,101980.69
2024-01-26T17:18:42.691Z,101996.50
2024-01-26T17:21:27.883Z,101991.69
2024-01-26T17:24:13.399Z,101988.66
2024-01-26T17:26:58.248Z,102000.13
2024-01-26T17:29:43.176Z,102002.06
2024-01-26T17:32:31.142Z,102003.31
2024-01-26T17:35:16.442Z,102004.22
2024-01-26T17:38:01.782Z,102010.47
2024-01-26T17:40:46.557Z,102001.38
2024-01-26T17:43:31.531Z,101994.88
2024-01-26T17:46:16.519Z,101990.38
2024-01-26T17:49:01.476Z,102002.53
2024-01-26T17:51:46.891Z,101993.13
2024-01-26T17:54:31.804Z,102004.88
2024-01-26T17:57:17.268Z,102014.44
2024-01-26T18:00:02.120Z,102017.16
2024-01-26T18:02:47.184Z,102018.56
2024-01-26T18:05:32.521Z,102024.06
2024-01-26T18:08:17.341Z,102018.03
2024-01-26T18:11:02.155Z,102017.06
2024-01-26T18:13:47.137Z,102020.75
2024-01-26T18:16:32.149Z,102022.88
2024-01-26T18:19:17.221Z,102028.72
2024-01-26T18:22:02.438Z,102022.06
2024-01-26T18:24:47.275Z,102025.59
2024-01-26T18:27:32.191Z,102022.00
2024-01-26T18:30:17.451Z,102019.56
2024-01-26T18:33:02.555Z,102027.84
2024-01-26T18:35:47.903Z,102025.28
2024-01-26T18:38:32.765Z,102020.53
2024-01-26T18:41:25.095Z,102036.84
2024-01-26T18:44:10.367Z,102004.84
2024-01-26T18:46:55.841Z,101999.31
2024-01-26T18:49:42.290Z,102003.81
2024-01-26T18:52:27.750Z,101993.44
2024-01-26T18:55:12.519Z,101988.25
2024-01-26T18:57:57.362Z,101975.94
2024-01-26T19:00:42.921Z,101976.66
2024-01-26T19:03:28.447Z,101986.75
2024-01-26T19:06:14.344Z,101992.88
2024-01-26T19:08:59.558Z,101993.84
2024-01-26T19:11:45.351Z,102005.00
2024-01-26T19:14:30.743Z,102001.88
2024-01-26T19:17:16.172Z,101980.94
2024-01-26T19:20:01.158Z,101957.34
2024-01-26T19:22:46.649Z,101956.16
2024-01-26T19:25:32.112Z,101958.72
2024-01-26T19:28:17.261Z,101958.81
2024-01-26T19:31:02.473Z,101965.97
2024-01-26T19:33:47.462Z,101962.41
2024-01-26T19:36:32.696Z,101969.97
2024-01-26T19:39:17.703Z,101979.13
2024-01-26T19:42:02.566Z,101979.13
2024-01-26T19:44:47.493Z,101960.16
2024-01-26T19:47:32.791Z,101987.31
2024-01-26T19:50:17.860Z,101978.06
2024-01-26T19:53:03.831Z,101994.50
2024-01-26T19:55:48.974Z,101998.34
2024-01-26T19:58:34.479Z,102013.38
2024-01-26T20:01:19.394Z,102008.66
2024-01-26T20:04:04.352Z,102005.72
2024-01-26T20:06:49.191Z,101992.91
2024-01-26T20:09:36.540Z,102004.63
2024-01-26T20:12:22.600Z,102005.13
2024-01-26T20:15:08.450Z,102023.28
2024-01-26T20:17:53.745Z,102035.41
2024-01-26T20:20:39.074Z,102039.31
2024-01-26T20:23:24.564Z,102051.63
2024-01-26T20:26:10.314Z,102056.75
2024-01-26T20:28:56.039Z,102063.84
2024-01-26T20:31:41.014Z,102066.16
2024-01-26T20:34:26.441Z,102064.66
2024-01-26T20:37:11.777Z,102068.91
2024-01-26T20:39:56.704Z,102079.84
2024-01-26T20:42:43.277Z,102080.63
2024-01-26T20:45:30.032Z,102086.75
2024-01-26T20:48:15.632Z,102089.03
2024-01-26T20:51:00.740Z,102103.75
2024-01-26T20:53:46.222Z,102104.63
2024-01-26T20:56:31.093Z,102117.06
2024-01-26T20:59:16.166Z,102128.03
2024-01-26T21:02:01.105Z,102131.03
2024-01-26T21:04:45.985Z,102138.13
2024-01-26T21:07:31.277Z,102142.00
2024-01-26T21:10:16.100Z,102157.25
2024-01-26T21:13:00.988Z,102169.38
2024-01-26T21:15:46.055Z,102196.00
2024-01-26T21:18:31.616Z,102193.84
2024-01-26T21:21:16.812Z,102201.75
2024-01-26T21:24:01.760Z,102209.09
2024-01-26T21:26:46.612Z,102239.84
2024-01-26T21:29:31.549Z,102252.59
2024-01-26T21:32:16.483Z,102234.91
2024-01-26T21:35:01.698Z,102248.63
2024-01-26T21:37:47.560Z,102246.56
2024-01-26T21:40:32.989Z,102255.03
2024-01-26T21:43:18.287Z,102246.56
2024-01-26T21:46:03.178Z,102252.00
2024-01-26T21:48:48.300Z,102250.66
2024-01-26T21:51:42.850Z,102253.28
2024-01-26T21:54:33.175Z,102253.06
2024-01-26T21:57:18.533Z,102256.63
2024-01-26T22:00:04.553Z,102270.03
2024-01-26T22:02:49.651Z,102275.19
2024-01-26T22:05:35.010Z,102280.72
2024-01-26T22:08:19.931Z,102282.63
2024-01-26T22:11:09.007Z,102286.88
2024-01-26T22:13:54.157Z,102292.00
2024-01-26T22:16:39.345Z,102303.72
2024-01-26T22:19:24.735Z,102303.16
2024-01-26T22:22:10.051Z,102311.53
2024-01-26T22:24:54.925Z,102329.09
2024-01-26T22:27:40.461Z,102329.59
2024-01-26T22:30:25.430Z,102340.66
2024-01-26T22:33:10.392Z,102351.09
2024-01-26T22:35:55.743Z,102348.34
2024-01-26T22:38:40.869Z,102343.00
2024-01-26T22:41:25.856Z,102357.16
2024-01-26T22:44:10.812Z,102359.88
2024-01-26T22:46:55.741Z,102380.47
2024-01-26T22:49:40.876Z,102380.56
2024-01-26T22:52:26.164Z,102391.38
2024-01-26T22:55:11.077Z,102388.00
2024-01-26T22:57:56.054Z,102378.34
2024-01-26T23:00:41.333Z,102378.06
2024-01-26T23:03:26.781Z,102375.56
2024-01-26T23:06:16.574Z,102378.13
2024-01-26T23:09:01.522Z,102386.09
2024-01-26T23:11:46.948Z,102387.84
2024-01-26T23:14:31.768Z,102397.91
2024-01-26T23:17:16.764Z,102414.59
2024-01-26T23:20:01.640Z,102421.81
2024-01-26T23:22:47.017Z,102418.41
2024-01-26T23:25:31.827Z,102425.75
2024-01-26T23:28:16.767Z,102432.56
2024-01-26T23:31:01.725Z,102440.59
2024-01-26T23:33:46.856Z,102446.50
2024-01-26T23:36:32.003Z,102455.50
2024-01-26T23:39:16.881Z,102458.94
2024-01-26T23:42:02.319Z,102461.97
2024-01-26T23:44:47.156Z,102472.41
2024-01-26T23:47:32.092Z,102471.53
2024-01-26T23:50:17.415Z,102468.53
2024-01-26T23:53:02.461Z,102480.19
2024-01-26T23:55:47.274Z,102485.53
2024-01-26T23:58:32.158Z,102492.66
